AirNav   Phillips 66 Aviation Fuel
 
 1611 users online  

50G Howard Nixon Memorial Airport
Chesaning, Michigan, USA

GOING TO CHESANING?


FAA INFORMATION EFFECTIVE 01 FEBRUARY 2018

Location

FAA Identifier: 50G
Lat/Long: 43-10-55.1144N / 084-07-59.8521W
43-10.918573N / 084-07.997535W
43.1819762 / -84.1332923
(estimated)
Elevation: 644 ft. / 196.3 m (surveyed)
Variation: 05W (1985)
From city: 1 mile W of CHESANING, MI
Time zone: UTC -5 (UTC -4 during Daylight Saving Time)
Zip code: 48616

Airport Operations

Airport use: Open to the public
Activation date: 09/1946
Control tower: no
ARTCC: CLEVELAND CENTER
FSS: LANSING FLIGHT SERVICE STATION
NOTAMs facility: LAN (NOTAM-D service available)
Attendance: IREG
Pattern altitude: 1644 ft. MSL
Wind indicator: lighted
Segmented circle: yes
Lights: ACTVT LIRL RY 09/27 AND RY 18/36 - CTAF.

Airport Communications

CTAF: 122.9
WX AWOS-3 at RNP (11 nm S): 118.025 (989-729-2967)
WX AWOS-3 at HYX (19 nm NE): 118.325 (989-752-3408)

Nearby radio navigation aids

VOR radial/distance  VOR name  Freq  Var
MBSr190/21.1SAGINAW VOR/DME112.9003W
FNTr313/21.3FLINT VORTAC116.9006W
LANr047/37.3LANSING VORTAC110.8005W
MOPr140/37.3MOUNT PLEASANT VOR/DME110.6005W
PSIr321/39.1PONTIAC VORTAC111.0003W

Airport Services

Parking: tiedowns

Runway Information

Runway 9/27

Dimensions: 2800 x 150 ft. / 853 x 46 m
Surface: turf, in good condition
Runway edge lights: low intensity
Runway edge markings: RY 18/36 & 09 /27 MARKED WITH 3 FT YELLOW CONES INCLUDING DSPLCD THLDS.
RUNWAY 9  RUNWAY 27
Latitude: 43-10.785167N43-10.800833N
Longitude: 084-08.374500W084-07.745000W
Elevation: 643.0 ft.641.0 ft.
Traffic pattern: leftleft
Displaced threshold: no800 ft.
Runway end identifier lights: yesyes
Obstructions: 15 ft. trees, 306 ft. from runway, 20:1 slope to clear25 ft. trees, 180 ft. from runway, 7:1 slope to clear
APCH RATIO 20:1 TO DSPLCD THLD OVER 55 FT TREES, 1104 FT DSTC, 75 FT L.

Runway 18/36

Dimensions: 2582 x 150 ft. / 787 x 46 m
Surface: turf, in good condition
Runway edge lights: low intensity
RUNWAY 18  RUNWAY 36
Latitude: 43-11.267167N43-10.842333N
Longitude: 084-07.921167W084-07.938965W
Elevation: 644.0 ft.
Traffic pattern: leftleft
Displaced threshold: 400 ft.796 ft.
Runway end identifier lights: yesyes
Obstructions: 50 ft. trees, 408 ft. from runway, 80 ft. right of centerline, 8:1 slope to clear
APCH RATIO 14:1 TO DSPLCD THLD, OVER 57 FT TREES, 808 FT DSTC, 80 FT R.
46 ft. trees, 234 ft. from runway, 5:1 slope to clear
APCH RATIO 20:1 TO DSPLCD THLD, OVER 52 FT TREES 1053 FT DSTC, 0 B.

Airport Ownership and Management from official FAA records

Ownership: Publicly-owned
Owner: VILLAGE OF CHESANING
204 S 4TH ST
CHESANING, MI 48616
Phone 989-845-3800
VILLAGE ADMIN -TROY FELYMAN; PHONE 989-845-3800.
Manager: CHRISTINE HARTGES
1100 W BROAD ST
CHESANING, MI 48616
Phone (989) 295-6992
ASST. MGR DAVID CASWELL 989-413-0432

Airport Operational Statistics

Aircraft based on the field: 17
Single engine airplanes: 17
    
Aircraft operations: avg 65/week *
50% transient general aviation
50% local general aviation
* for 12-month period ending 31 December 2016

Additional Remarks

NO WINTER SNOW REMOVAL.

Instrument Procedures

There are no published instrument procedures at 50G.

Some nearby airports with instrument procedures:

KRNP - Owosso Community Airport (11 nm S)
KHYX - Saginaw County H W Browne Airport (19 nm NE)
KMBS - MBS International Airport (21 nm N)
KFNT - Bishop International Airport (21 nm SE)
3CM - James Clements Municipal Airport (24 nm NE)
 
Loc | Ops | Rwys | IFR | FBO | Links
Com | Nav | Svcs | Stats | Notes

AirNav Hotels Sweepstakes
 
Area around 50G (Howard Nixon Memorial Airport)
 
Road maps at: MapQuest Bing Google
 
Aerial photo
WARNING: Photo may not be current or correct
Aerial photo of 50G (Howard Nixon Memorial Airport)
Photo by Ren Wall

Do you have a better or more recent aerial photo of Howard Nixon Memorial Airport that you would like to share? If so, please send us your photo.

 
Sectional chart

 
Airport distance calculator
Flying to Howard Nixon Memorial Airport? Find the distance to fly.

From to 50G

Sunrise and sunset
Times for 21-Feb-2018
 Local
(UTC-5)
 Zulu
(UTC)
Morning civil twilight06:5811:58
Sunrise07:2712:27
Sunset18:1423:14
Evening civil twilight18:4323:43

Current date and time
Zulu (UTC)  21-Feb-2018 21:51:00
Local (UTC-5)  21-Feb-2018 16:51:00
 
METAR
KRNP 
11nm S 
212135Z AUTO 00000KT 10SM SCT024 02/M03 A3055 RMK AO2 T00181034
KHYX 
19nm NE 
212135Z AUTO 36004KT 10SM CLR 01/M03 A3056 RMK AO2
KFNT 
21nm SE 
212134Z 34005KT 10SM BKN024 02/M03 A3055 RMK AO2 T00221028
KMBS 
21nm N 
212053Z 34005KT 10SM CLR 03/M04 A3055 RMK AO2 SLP352 T00281044 53012
TAF
KFNT 
21nm SE 
211723Z 2118/2218 36012KT P6SM BKN025 OVC200 TEMPO 2118/2120 OVC015 FM212200 03007KT P6SM SCT025 BKN200 FM220100 07007KT P6SM BKN200 FM221400 07010KT P6SM SCT025 OVC200
KMBS 
21nm N 
211723Z 2118/2218 36012KT P6SM BKN025 OVC200 TEMPO 2118/2120 OVC015 FM212200 03010KT P6SM SCT025 BKN200 FM220100 07010KT P6SM BKN200 FM221400 07013KT P6SM SCT025 OVC200
NOTAMs
Click for the latest NOTAMs
NOTAMs are issued by the DoD/FAA and will open in a separate window not controlled by AirNav.

 

 
 

Would you like to see your business listed on this page?

 If your business provides an interesting product or service to pilots, flight crews, aircraft, or users of the Howard Nixon Memorial Airport, you should consider listing it here.  To start the listing process, click on the button below
 
Add a business
 

Other Pages about Howard Nixon Memorial Airport

Page from the Michigan Airport Directory (PDF)
 
Update a link
 
Copyright © AirNav, LLC. All rights reserved. Privacy Policy  Contact